createdAt,value
2018-11-05T00:02:24.540Z,20.53
2018-11-05T00:04:52.600Z,21.67
2018-11-05T00:07:21.171Z,20.43
2018-11-05T00:09:49.223Z,21.13
2018-11-05T00:12:17.315Z,21.60
2018-11-05T00:14:45.453Z,23.17
2018-11-05T00:17:13.468Z,24.20
2018-11-05T00:19:41.569Z,24.63
2018-11-05T00:22:09.688Z,20.33
2018-11-05T00:24:37.716Z,20.90
2018-11-05T00:27:05.757Z,23.53
2018-11-05T00:29:33.839Z,23.83
2018-11-05T00:32:02.028Z,22.63
2018-11-05T00:34:30.244Z,25.53
2018-11-05T00:36:58.744Z,23.87
2018-11-05T00:39:26.850Z,24.83
2018-11-05T00:41:54.872Z,24.70
2018-11-05T00:44:23.060Z,16.40
2018-11-05T00:46:51.122Z,22.33
2018-11-05T00:49:19.166Z,18.97
2018-11-05T00:51:48.513Z,23.13
2018-11-05T00:54:16.767Z,26.50
2018-11-05T00:56:44.827Z,25.50
2018-11-05T00:59:12.988Z,26.03
2018-11-05T01:01:42.120Z,20.80
2018-11-05T01:04:11.335Z,25.17
2018-11-05T01:06:39.376Z,22.57
2018-11-05T01:09:08.067Z,26.90
2018-11-05T01:11:36.370Z,25.07
2018-11-05T01:14:05.432Z,26.97
2018-11-05T01:16:33.475Z,25.73
2018-11-05T01:19:01.548Z,25.80
2018-11-05T01:21:29.681Z,24.63
2018-11-05T01:23:57.785Z,26.50
2018-11-05T01:26:26.055Z,25.77
2018-11-05T01:28:54.079Z,20.43
2018-11-05T01:31:22.145Z,25.37
2018-11-05T01:33:50.303Z,28.87
2018-11-05T01:36:18.376Z,26.70
2018-11-05T01:38:46.472Z,27.13
2018-11-05T01:41:14.891Z,27.60
2018-11-05T01:43:43.260Z,27.43
2018-11-05T01:46:11.499Z,28.00
2018-11-05T01:48:42.545Z,32.23
2018-11-05T01:51:10.703Z,28.93
2018-11-05T01:53:38.761Z,27.97
2018-11-05T01:56:07.423Z,27.63
2018-11-05T01:58:35.469Z,29.47
2018-11-05T02:01:03.492Z,28.10
2018-11-05T02:03:31.556Z,26.47
2018-11-05T02:05:59.623Z,26.77
2018-11-05T02:08:27.667Z,26.70
2018-11-05T02:10:55.994Z,27.07
2018-11-05T02:13:24.176Z,25.10
2018-11-05T02:15:52.368Z,30.00
2018-11-05T02:18:20.621Z,28.27
2018-11-05T02:20:48.676Z,29.30
2018-11-05T02:23:16.801Z,26.47
2018-11-05T02:25:44.970Z,29.43
2018-11-05T02:28:13.046Z,29.40
2018-11-05T02:30:41.168Z,26.83
2018-11-05T02:33:09.684Z,26.10
2018-11-05T02:35:37.784Z,28.60
2018-11-05T02:38:06.004Z,23.60
2018-11-05T02:40:34.290Z,30.67
2018-11-05T02:43:02.339Z,25.60
2018-11-05T02:45:30.383Z,27.47
2018-11-05T02:47:58.468Z,20.53
2018-11-05T02:50:26.563Z,28.37
2018-11-05T02:52:54.649Z,30.63
2018-11-05T02:55:22.920Z,32.93
2018-11-05T02:57:51.107Z,30.00
2018-11-05T03:00:19.985Z,30.63
2018-11-05T03:02:48.094Z,28.53
2018-11-05T03:05:17.841Z,30.87
2018-11-05T03:07:46.989Z,31.37
2018-11-05T03:10:15.232Z,28.30
2018-11-05T03:12:44.327Z,28.10
2018-11-05T03:15:14.447Z,29.33
2018-11-05T03:17:42.622Z,29.37
2018-11-05T03:20:11.958Z,33.07
2018-11-05T03:22:40.611Z,27.83
2018-11-05T03:25:08.642Z,29.10
2018-11-05T03:27:36.859Z,31.77
2018-11-05T03:30:07.360Z,30.37
2018-11-05T03:32:35.461Z,28.07
2018-11-05T03:35:03.609Z,30.23
2018-11-05T03:37:31.701Z,26.73
2018-11-05T03:39:59.735Z,30.47
2018-11-05T03:42:27.771Z,29.13
2018-11-05T03:44:55.884Z,31.17
2018-11-05T03:47:23.928Z,22.23
2018-11-05T03:49:51.976Z,29.67
2018-11-05T03:52:20.235Z,29.27
2018-11-05T03:54:48.285Z,28.07
2018-11-05T03:57:16.472Z,28.83
2018-11-05T03:59:44.556Z,28.83
2018-11-05T04:02:12.671Z,25.27
2018-11-05T04:04:40.694Z,30.27
2018-11-05T04:07:08.754Z,15.67
2018-11-05T04:09:36.819Z,31.57
2018-11-05T04:12:05.418Z,31.23
2018-11-05T04:14:34.081Z,25.57
2018-11-05T04:17:02.447Z,27.73
2018-11-05T04:19:30.491Z,27.63
2018-11-05T04:21:58.719Z,30.23
2018-11-05T04:24:26.799Z,24.30
2018-11-05T04:26:54.892Z,28.20
2018-11-05T04:29:22.957Z,31.93
2018-11-05T04:31:50.980Z,28.80
2018-11-05T04:34:19.156Z,30.43
2018-11-05T04:36:47.447Z,27.53
2018-11-05T04:39:16.252Z,28.70
2018-11-05T04:41:44.411Z,31.80
2018-11-05T04:44:12.794Z,28.77
2018-11-05T04:46:40.959Z,29.80
2018-11-05T04:49:09.476Z,29.50
2018-11-05T04:51:37.584Z,26.30
2018-11-05T04:54:06.099Z,27.13
2018-11-05T04:56:34.199Z,27.10
2018-11-05T04:59:02.659Z,29.00
2018-11-05T05:01:30.695Z,25.63
2018-11-05T05:03:58.736Z,30.60
2018-11-05T05:06:26.910Z,30.23
2018-11-05T05:08:55.055Z,30.73
2018-11-05T05:11:23.151Z,25.83
2018-11-05T05:13:51.288Z,28.43
2018-11-05T05:16:19.442Z,29.50
2018-11-05T05:18:47.486Z,28.17
2018-11-05T05:21:15.711Z,29.70
2018-11-05T05:23:43.763Z,29.50
2018-11-05T05:26:11.842Z,29.70
2018-11-05T05:28:39.923Z,28.67
2018-11-05T05:31:07.983Z,23.83
2018-11-05T05:33:36.321Z,20.23
2018-11-05T05:36:04.725Z,26.85
2018-11-05T05:38:32.808Z,29.57
2018-11-05T05:41:01.057Z,26.30
2018-11-05T05:43:29.031Z,29.27
2018-11-05T05:45:57.160Z,25.07
2018-11-05T05:48:25.211Z,27.83
2018-11-05T05:50:53.364Z,31.73
2018-11-05T05:53:21.443Z,31.00
2018-11-05T05:55:49.711Z,20.37
2018-11-05T05:58:17.886Z,30.50
2018-11-05T06:00:46.303Z,13.00
2018-11-05T06:03:14.327Z,19.43
2018-11-05T06:05:42.379Z,30.17
2018-11-05T06:08:10.636Z,29.53
2018-11-05T06:10:38.683Z,29.50
2018-11-05T06:13:06.727Z,27.57
2018-11-05T06:15:34.780Z,28.23
2018-11-05T06:18:02.913Z,28.20
2018-11-05T06:20:31.246Z,29.50
2018-11-05T06:22:59.436Z,29.00
2018-11-05T06:25:27.479Z,31.70
2018-11-05T06:27:55.882Z,31.13
2018-11-05T06:30:23.953Z,25.70
2018-11-05T06:32:52.435Z,30.17
2018-11-05T06:35:21.177Z,28.97
2018-11-05T06:37:49.213Z,30.80
2018-11-05T06:40:18.587Z,29.73
2018-11-05T06:42:47.021Z,29.07
2018-11-05T06:45:16.567Z,29.47
2018-11-05T06:47:45.437Z,27.67
2018-11-05T06:50:15.679Z,29.47
2018-11-05T06:52:44.406Z,25.33
2018-11-05T06:55:13.163Z,26.20
2018-11-05T06:57:41.710Z,26.50
2018-11-05T07:00:19.106Z,24.90
2018-11-05T07:02:47.121Z,24.77
2018-11-05T07:05:15.481Z,27.73
2018-11-05T07:07:43.756Z,28.27
2018-11-05T07:10:12.897Z,28.13
2018-11-05T07:12:41.644Z,16.60
2018-11-05T07:15:11.242Z,31.57
2018-11-05T07:17:39.434Z,30.03
2018-11-05T07:20:09.980Z,21.77
2018-11-05T07:22:38.077Z,23.60
2018-11-05T07:25:07.285Z,24.73
2018-11-05T07:27:35.366Z,25.53
2018-11-05T07:30:04.335Z,28.20
2018-11-05T07:32:32.992Z,20.13
2018-11-05T07:35:01.039Z,28.57
2018-11-05T07:37:29.091Z,26.90
2018-11-05T07:39:57.142Z,23.40
2018-11-05T07:42:25.163Z,26.13
2018-11-05T07:44:53.270Z,25.07
2018-11-05T07:47:21.278Z,27.43
2018-11-05T07:49:49.327Z,26.83
2018-11-05T07:52:17.646Z,17.50
2018-11-05T07:54:45.682Z,24.30
2018-11-05T07:57:13.879Z,26.10
2018-11-05T07:59:42.355Z,27.37
2018-11-05T08:02:10.429Z,27.63
2018-11-05T08:04:38.510Z,26.10
2018-11-05T08:07:07.009Z,25.83
2018-11-05T08:09:35.184Z,25.20
2018-11-05T08:12:03.206Z,23.67
2018-11-05T08:14:31.362Z,22.37
2018-11-05T08:16:59.285Z,26.03
2018-11-05T08:19:27.344Z,24.57
2018-11-05T08:21:55.716Z,26.90
2018-11-05T08:24:23.810Z,25.43
2018-11-05T08:26:51.910Z,28.07
2018-11-05T08:29:19.958Z,20.53
2018-11-05T08:31:47.991Z,17.20
2018-11-05T08:34:16.174Z,24.53
2018-11-05T08:36:44.331Z,22.97
2018-11-05T08:39:12.934Z,25.23
2018-11-05T08:41:41.216Z,23.40
2018-11-05T08:44:10.475Z,24.75
2018-11-05T08:46:38.618Z,19.52
2018-11-05T08:49:06.863Z,21.23
2018-11-05T08:51:35.201Z,24.10
2018-11-05T08:54:03.189Z,23.03
2018-11-05T08:56:31.270Z,21.25
2018-11-05T08:58:59.332Z,25.40
2018-11-05T09:01:32.647Z,25.50
2018-11-05T09:04:01.602Z,24.57
2018-11-05T09:06:30.067Z,22.30
2018-11-05T09:08:58.132Z,20.88
2018-11-05T09:11:26.903Z,23.12
2018-11-05T09:13:54.528Z,25.77
2018-11-05T09:16:22.548Z,26.25
2018-11-05T09:18:51.187Z,24.98
2018-11-05T09:21:19.224Z,26.37
2018-11-05T09:23:47.711Z,26.35
2018-11-05T09:26:16.011Z,25.68
2018-11-05T09:28:44.055Z,25.62
2018-11-05T09:31:14.602Z,22.42
2018-11-05T09:33:42.889Z,25.08
2018-11-05T09:36:11.064Z,26.10
2018-11-05T09:38:39.090Z,23.65
2018-11-05T09:41:07.850Z,24.92
2018-11-05T09:43:36.460Z,23.38
2018-11-05T09:46:04.539Z,26.12
2018-11-05T09:48:32.904Z,19.77
2018-11-05T09:51:00.928Z,26.55
2018-11-05T09:53:29.139Z,25.17
2018-11-05T09:55:57.390Z,25.57
2018-11-05T09:58:25.455Z,22.65
2018-11-05T10:00:53.520Z,26.33
2018-11-05T10:03:21.797Z,27.40
2018-11-05T10:05:50.320Z,27.82
2018-11-05T10:08:18.351Z,25.12
2018-11-05T10:10:46.688Z,27.25
2018-11-05T10:13:14.699Z,25.57
2018-11-05T10:15:42.728Z,23.83
2018-11-05T10:18:11.352Z,22.75
2018-11-05T10:20:39.400Z,24.07
2018-11-05T10:23:07.521Z,25.45
2018-11-05T10:25:35.702Z,22.32
2018-11-05T10:28:06.191Z,22.90
2018-11-05T10:30:34.523Z,22.35
2018-11-05T10:33:02.743Z,17.97
2018-11-05T10:36:06.583Z,21.15
2018-11-05T10:38:34.730Z,21.57
2018-11-05T10:41:02.941Z,22.58
2018-11-05T10:43:31.374Z,22.48
2018-11-05T10:45:59.502Z,22.73
2018-11-05T10:48:27.508Z,21.30
2018-11-05T10:50:55.613Z,22.05
2018-11-05T10:53:23.628Z,23.35
2018-11-05T10:55:51.691Z,23.52
2018-11-05T10:58:20.079Z,22.02
2018-11-05T11:00:53.454Z,22.62
2018-11-05T11:03:21.489Z,23.10
2018-11-05T11:05:49.626Z,21.73
2018-11-05T11:08:17.833Z,20.10
2018-11-05T11:10:46.107Z,22.13
2018-11-05T11:13:14.148Z,19.40
2018-11-05T11:15:42.243Z,21.02
2018-11-05T11:18:10.331Z,19.37
2018-11-05T11:20:38.359Z,21.45
2018-11-05T11:23:06.410Z,17.52
2018-11-05T11:25:34.503Z,21.02
2018-11-05T11:28:02.701Z,17.48
2018-11-05T11:30:30.696Z,15.72
2018-11-05T11:32:58.722Z,20.10
2018-11-05T11:35:26.810Z,20.43
2018-11-05T11:37:55.007Z,20.15
2018-11-05T11:40:24.028Z,20.85
2018-11-05T11:42:52.239Z,19.00
2018-11-05T11:45:21.580Z,19.77
2018-11-05T11:47:49.642Z,20.62
2018-11-05T11:50:18.108Z,18.90
2018-11-05T11:52:46.407Z,19.42
2018-11-05T11:55:15.875Z,17.90
2018-11-05T11:57:44.607Z,19.32
2018-11-05T12:00:16.040Z,18.00
2018-11-05T12:02:44.525Z,17.95
2018-11-05T12:05:12.635Z,19.65
2018-11-05T12:07:40.655Z,18.95
2018-11-05T12:10:10.561Z,19.00
2018-11-05T12:12:38.694Z,18.70
2018-11-05T12:15:07.084Z,19.75
2018-11-05T12:17:35.794Z,17.67
2018-11-05T12:20:03.911Z,18.80
2018-11-05T12:22:32.042Z,20.95
2018-11-05T12:25:00.113Z,20.93
2018-11-05T12:27:28.495Z,19.30
2018-11-05T12:29:56.727Z,18.00
2018-11-05T12:32:24.771Z,16.20
2018-11-05T12:34:53.227Z,16.40
2018-11-05T12:37:21.265Z,20.27
2018-11-05T12:39:49.296Z,14.65
2018-11-05T12:42:17.630Z,20.70
2018-11-05T12:44:45.767Z,18.80
2018-11-05T12:47:13.892Z,18.30
2018-11-05T12:49:42.311Z,18.23
2018-11-05T12:52:10.473Z,18.07
2018-11-05T12:54:38.494Z,20.20
2018-11-05T12:57:06.682Z,18.70
2018-11-05T12:59:34.736Z,19.07
2018-11-05T13:02:02.826Z,18.55
2018-11-05T13:04:30.952Z,20.08
2018-11-05T13:06:58.972Z,20.48
2018-11-05T13:09:27.034Z,19.15
2018-11-05T13:11:55.124Z,18.62
2018-11-05T13:14:23.226Z,18.45
2018-11-05T13:16:51.480Z,18.62
2018-11-05T13:19:19.871Z,19.10
2018-11-05T13:21:47.784Z,19.42
2018-11-05T13:24:15.878Z,20.40
2018-11-05T13:26:44.977Z,19.10
2018-11-05T13:29:13.260Z,18.55
2018-11-05T13:31:41.555Z,18.82
2018-11-05T13:34:09.799Z,16.35
2018-11-05T13:36:37.979Z,20.15
2018-11-05T13:39:07.691Z,19.10
2018-11-05T13:41:35.747Z,21.20
2018-11-05T13:44:04.488Z,20.43
2018-11-05T13:46:33.058Z,19.92
2018-11-05T13:49:01.157Z,19.12
2018-11-05T13:51:28.740Z,20.68
2018-11-05T13:53:57.022Z,20.40
2018-11-05T13:56:25.056Z,20.40
2018-11-05T13:58:53.216Z,19.90
2018-11-05T14:01:21.587Z,22.00
2018-11-05T14:03:49.723Z,20.33
2018-11-05T14:06:17.804Z,19.57
2018-11-05T14:08:46.074Z,20.82
2018-11-05T14:11:14.101Z,19.75
2018-11-05T14:13:42.114Z,20.37
2018-11-05T14:16:10.296Z,20.48
2018-11-05T14:18:38.382Z,19.57
2018-11-05T14:21:06.418Z,20.17
2018-11-05T14:23:34.530Z,21.47
2018-11-05T14:26:02.597Z,20.92
2018-11-05T14:28:31.041Z,18.80
2018-11-05T14:30:58.925Z,20.10
2018-11-05T14:33:27.076Z,22.02
2018-11-05T14:35:55.202Z,21.73
2018-11-05T14:38:23.721Z,22.80
2018-11-05T14:40:51.820Z,19.92
2018-11-05T14:43:19.880Z,20.50
2018-11-05T14:45:48.119Z,20.55
2018-11-05T14:48:16.146Z,20.88
2018-11-05T14:50:44.225Z,21.48
2018-11-05T14:53:12.511Z,20.80
2018-11-05T14:55:40.604Z,20.40
2018-11-05T14:58:08.631Z,21.60
2018-11-05T15:00:37.423Z,22.50
2018-11-05T15:03:06.506Z,20.98
2018-11-05T15:05:34.632Z,21.37
2018-11-05T15:08:03.002Z,20.40
2018-11-05T15:10:31.025Z,19.20
2018-11-05T15:12:59.237Z,20.20
2018-11-05T15:15:27.311Z,20.10
2018-11-05T15:17:55.368Z,21.15
2018-11-05T15:20:24.028Z,21.45
2018-11-05T15:22:52.103Z,20.77
2018-11-05T15:25:20.882Z,20.90
2018-11-05T15:27:48.858Z,20.43
2018-11-05T15:30:18.274Z,21.57
2018-11-05T15:32:46.911Z,19.60
2018-11-05T15:35:15.110Z,21.62
2018-11-05T15:37:43.690Z,21.25
2018-11-05T15:40:13.506Z,21.57
2018-11-05T15:42:41.833Z,21.13
2018-11-05T15:45:11.967Z,21.70
2018-11-05T15:47:40.633Z,21.17
2018-11-05T15:50:10.474Z,19.92
2018-11-05T15:52:38.767Z,20.82
2018-11-05T15:55:06.668Z,19.32
2018-11-05T15:57:35.446Z,18.87
2018-11-05T16:00:04.023Z,17.80
2018-11-05T16:02:32.133Z,18.23
2018-11-05T16:05:00.128Z,18.55
2018-11-05T16:07:28.688Z,17.80
2018-11-05T16:09:56.976Z,18.27
2018-11-05T16:12:25.083Z,18.30
2018-11-05T16:14:53.317Z,17.82
2018-11-05T16:17:21.340Z,18.02
2018-11-05T16:19:49.435Z,16.93
2018-11-05T16:22:17.597Z,17.50
2018-11-05T16:24:45.634Z,17.70
2018-11-05T16:27:13.679Z,17.87
2018-11-05T16:29:41.812Z,18.42
2018-11-05T16:32:09.896Z,16.87
2018-11-05T16:34:38.264Z,17.55
2018-11-05T16:37:06.381Z,17.27
2018-11-05T16:39:34.451Z,19.13
2018-11-05T16:42:02.427Z,19.42
2018-11-05T16:44:31.412Z,18.03
2018-11-05T16:46:59.973Z,18.45
2018-11-05T16:49:27.991Z,18.87
2018-11-05T16:51:56.417Z,17.87
2018-11-05T16:54:24.672Z,18.95
2018-11-05T16:56:52.735Z,18.17
2018-11-05T16:59:21.122Z,16.35
2018-11-05T17:01:49.618Z,17.98
2018-11-05T17:04:17.312Z,18.30
2018-11-05T17:06:45.553Z,18.23
2018-11-05T17:09:13.809Z,18.70
2018-11-05T17:11:41.873Z,19.70
2018-11-05T17:14:10.001Z,18.62
2018-11-05T17:16:38.023Z,17.70
2018-11-05T17:19:06.313Z,18.70
2018-11-05T17:21:34.338Z,18.63
2018-11-05T17:24:02.394Z,18.67
2018-11-05T17:26:30.910Z,18.95
2018-11-05T17:28:59.014Z,19.50
2018-11-05T17:31:27.882Z,19.05
2018-11-05T17:33:55.987Z,18.07
2018-11-05T17:36:24.643Z,18.60
2018-11-05T17:38:52.693Z,20.30
2018-11-05T17:41:25.590Z,18.60
2018-11-05T17:43:53.646Z,17.63
2018-11-05T17:46:21.744Z,18.42
2018-11-05T17:48:49.788Z,18.67
2018-11-05T17:51:17.807Z,17.07
2018-11-05T17:53:45.906Z,17.52
2018-11-05T17:56:14.124Z,18.13
2018-11-05T17:58:42.185Z,16.35
2018-11-05T18:01:10.198Z,17.00
2018-11-05T18:03:38.753Z,16.00
2018-11-05T18:06:06.819Z,17.32
2018-11-05T18:08:35.068Z,16.57
2018-11-05T18:11:03.212Z,17.80
2018-11-05T18:13:31.239Z,17.10
2018-11-05T18:15:59.342Z,16.63
2018-11-05T18:18:27.371Z,15.13
2018-11-05T18:20:55.395Z,17.43
2018-11-05T18:23:23.720Z,15.83
2018-11-05T18:25:52.122Z,16.47
2018-11-05T18:28:20.200Z,14.30
2018-11-05T18:30:48.606Z,14.93
2018-11-05T18:33:17.036Z,15.30
2018-11-05T18:35:45.245Z,16.17
2018-11-05T18:38:13.948Z,16.10
2018-11-05T18:40:42.062Z,15.17
2018-11-05T18:43:10.071Z,15.60
2018-11-05T18:45:38.227Z,17.03
2018-11-05T18:48:06.275Z,14.37
2018-11-05T18:50:34.315Z,16.05
2018-11-05T18:53:02.461Z,15.23
2018-11-05T18:55:30.587Z,16.60
2018-11-05T18:57:58.814Z,15.00
2018-11-05T19:00:28.027Z,16.47
2018-11-05T19:02:57.281Z,16.77
2018-11-05T19:05:26.456Z,16.55
2018-11-05T19:07:54.522Z,14.70
2018-11-05T19:10:23.222Z,16.25
2018-11-05T19:12:52.103Z,15.90
2018-11-05T19:15:20.309Z,16.40
2018-11-05T19:17:49.218Z,15.40
2018-11-05T19:20:17.561Z,15.13
2018-11-05T19:22:46.327Z,14.47
2018-11-05T19:25:15.123Z,15.03
2018-11-05T19:27:43.533Z,16.37
2018-11-05T19:30:15.516Z,15.97
2018-11-05T19:32:43.951Z,15.70
2018-11-05T19:35:12.419Z,15.37
2018-11-05T19:37:41.031Z,17.27
2018-11-05T19:40:11.553Z,16.93
2018-11-05T19:42:40.539Z,16.33
2018-11-05T19:45:10.853Z,16.23
2018-11-05T19:47:39.229Z,16.73
2018-11-05T19:50:09.470Z,16.60
2018-11-05T19:52:37.840Z,15.85
2018-11-05T19:55:07.199Z,16.87
2018-11-05T19:57:35.419Z,16.73
2018-11-05T20:00:05.364Z,17.07
2018-11-05T20:02:33.443Z,16.73
2018-11-05T20:05:01.464Z,16.40
2018-11-05T20:07:29.542Z,15.97
2018-11-05T20:09:57.830Z,15.40
2018-11-05T20:12:26.000Z,16.00
2018-11-05T20:14:54.805Z,16.47
2018-11-05T20:17:22.847Z,16.73
2018-11-05T20:19:51.574Z,14.90
2018-11-05T20:22:19.681Z,16.03
2018-11-05T20:24:47.687Z,15.83
2018-11-05T20:27:15.735Z,15.33
2018-11-05T20:29:43.819Z,14.77
2018-11-05T20:32:12.260Z,15.37
2018-11-05T20:34:40.111Z,15.27
2018-11-05T20:37:08.440Z,17.07
2018-11-05T20:39:36.566Z,15.17
2018-11-05T20:42:05.399Z,15.00
2018-11-05T20:44:33.470Z,14.47
2018-11-05T20:47:01.547Z,14.53
2018-11-05T20:49:29.633Z,15.53
2018-11-05T20:51:58.411Z,15.20
2018-11-05T20:54:26.443Z,14.07
2018-11-05T20:56:54.439Z,14.80
2018-11-05T20:59:22.543Z,13.17
2018-11-05T21:01:50.630Z,15.97
2018-11-05T21:04:18.711Z,14.93
2018-11-05T21:06:46.803Z,14.63
2018-11-05T21:09:14.803Z,14.13
2018-11-05T21:11:42.819Z,14.07
2018-11-05T21:14:10.851Z,14.13
2018-11-05T21:16:39.016Z,13.63
2018-11-05T21:19:07.089Z,14.90
2018-11-05T21:21:35.213Z,14.13
2018-11-05T21:24:03.568Z,13.93
2018-11-05T21:26:31.722Z,14.00
2018-11-05T21:28:59.909Z,14.27
2018-11-05T21:31:27.998Z,14.60
2018-11-05T21:36:24.415Z,13.03
2018-11-05T21:38:52.467Z,12.97
2018-11-05T21:41:20.555Z,13.10
2018-11-05T21:43:48.817Z,11.77
2018-11-05T21:46:16.887Z,11.10
2018-11-05T21:48:44.935Z,12.13
2018-11-05T21:51:12.982Z,12.63
2018-11-05T21:53:41.134Z,12.53
2018-11-05T21:56:09.231Z,12.40
2018-11-05T21:58:37.262Z,11.97
2018-11-05T22:01:05.731Z,12.37
2018-11-05T22:03:33.876Z,11.63
2018-11-05T22:06:02.248Z,12.80
2018-11-05T22:08:30.352Z,10.60
2018-11-05T22:10:58.391Z,11.77
2018-11-05T22:13:26.473Z,10.97
2018-11-05T22:15:54.459Z,11.90
2018-11-05T22:18:22.655Z,11.27
2018-11-05T22:20:50.751Z,10.50
2018-11-05T22:23:18.869Z,11.93
2018-11-05T22:25:46.912Z,9.93
2018-11-05T22:28:14.927Z,10.17
2018-11-05T22:30:42.950Z,9.50
2018-11-05T22:33:10.959Z,9.33
2018-11-05T22:35:39.212Z,10.00
2018-11-05T22:38:07.212Z,9.90
2018-11-05T22:40:35.311Z,9.70
2018-11-05T22:43:03.750Z,9.63
2018-11-05T22:45:32.287Z,9.77
2018-11-05T22:48:00.765Z,10.13
2018-11-05T22:50:28.880Z,10.07
2018-11-05T22:52:56.863Z,9.97
2018-11-05T22:55:24.976Z,10.70
2018-11-05T22:57:53.935Z,10.03
2018-11-05T23:00:27.376Z,9.50
2018-11-05T23:03:00.940Z,8.93
2018-11-05T23:05:28.978Z,9.00
2018-11-05T23:07:57.084Z,9.00
2018-11-05T23:10:25.851Z,9.90
2018-11-05T23:12:53.922Z,8.87
2018-11-05T23:15:21.950Z,8.67
2018-11-05T23:17:50.745Z,8.77
2018-11-05T23:20:18.896Z,9.50
2018-11-05T23:22:46.965Z,9.00
2018-11-05T23:25:15.010Z,8.77
2018-11-05T23:27:43.044Z,8.97
2018-11-05T23:30:12.489Z,9.30
2018-11-05T23:32:40.981Z,8.90
2018-11-05T23:35:09.743Z,9.27
2018-11-05T23:37:38.718Z,9.43
2018-11-05T23:40:07.360Z,9.63
2018-11-05T23:42:35.898Z,8.37
2018-11-05T23:45:04.371Z,8.50
2018-11-05T23:47:32.603Z,9.50
2018-11-05T23:50:01.527Z,9.17
2018-11-05T23:52:29.710Z,9.73
2018-11-05T23:54:57.722Z,9.33
2018-11-05T23:57:25.804Z,9.27
2018-11-05T23:59:53.843Z,9.90
